sensor_id;sensor_type;location;lat;lon;timestamp;P1;durP1;ratioP1;P2;durP2;ratioP2
48596;SDS011;34382;43.160;24.148;2023-07-31T00:00:31;14.93;;;10.55;;
48596;SDS011;34382;43.160;24.148;2023-07-31T00:02:03;15.55;;;11.23;;
48596;SDS011;34382;43.160;24.148;2023-07-31T00:03:36;15.38;;;11.68;;
48596;SDS011;34382;43.160;24.148;2023-07-31T00:05:08;82.25;;;19.77;;
48596;SDS011;34382;43.160;24.148;2023-07-31T00:06:40;14.88;;;12.15;;
48596;SDS011;34382;43.160;24.148;2023-07-31T00:08:13;15.90;;;12.55;;
48596;SDS011;34382;43.160;24.148;2023-07-31T00:09:45;14.43;;;11.60;;
48596;SDS011;34382;43.160;24.148;2023-07-31T00:11:17;15.90;;;12.18;;
48596;SDS011;34382;43.160;24.148;2023-07-31T00:12:49;17.13;;;12.63;;
48596;SDS011;34382;43.160;24.148;2023-07-31T00:14:21;16.35;;;12.60;;
48596;SDS011;34382;43.160;24.148;2023-07-31T00:15:54;15.38;;;12.70;;
48596;SDS011;34382;43.160;24.148;2023-07-31T00:17:26;16.37;;;12.57;;
48596;SDS011;34382;43.160;24.148;2023-07-31T00:18:58;17.58;;;13.38;;
48596;SDS011;34382;43.160;24.148;2023-07-31T00:20:31;15.40;;;12.63;;
48596;SDS011;34382;43.160;24.148;2023-07-31T00:22:03;15.82;;;12.10;;
48596;SDS011;34382;43.160;24.148;2023-07-31T00:23:36;16.05;;;12.68;;
48596;SDS011;34382;43.160;24.148;2023-07-31T00:25:08;16.55;;;13.45;;
48596;SDS011;34382;43.160;24.148;2023-07-31T00:26:40;15.43;;;12.63;;
48596;SDS011;34382;43.160;24.148;2023-07-31T00:28:12;15.40;;;12.23;;
48596;SDS011;34382;43.160;24.148;2023-07-31T00:29:45;16.38;;;13.10;;
48596;SDS011;34382;43.160;24.148;2023-07-31T00:31:17;19.95;;;12.43;;
48596;SDS011;34382;43.160;24.148;2023-07-31T00:32:49;14.95;;;12.23;;
48596;SDS011;34382;43.160;24.148;2023-07-31T00:34:21;16.27;;;12.90;;
48596;SDS011;34382;43.160;24.148;2023-07-31T00:35:54;15.93;;;13.57;;
48596;SDS011;34382;43.160;24.148;2023-07-31T00:37:26;16.70;;;13.05;;
48596;SDS011;34382;43.160;24.148;2023-07-31T00:38:58;49.33;;;22.75;;
48596;SDS011;34382;43.160;24.148;2023-07-31T00:40:34;18.37;;;14.40;;
48596;SDS011;34382;43.160;24.148;2023-07-31T00:42:08;18.27;;;13.20;;
48596;SDS011;34382;43.160;24.148;2023-07-31T00:43:40;17.17;;;12.80;;
48596;SDS011;34382;43.160;24.148;2023-07-31T00:45:12;15.57;;;12.20;;
48596;SDS011;34382;43.160;24.148;2023-07-31T00:46:44;14.82;;;10.88;;
48596;SDS011;34382;43.160;24.148;2023-07-31T00:48:16;15.60;;;10.57;;
48596;SDS011;34382;43.160;24.148;2023-07-31T00:49:48;17.25;;;10.63;;
48596;SDS011;34382;43.160;24.148;2023-07-31T00:51:21;13.55;;;10.55;;
48596;SDS011;34382;43.160;24.148;2023-07-31T00:52:53;13.50;;;9.82;;
48596;SDS011;34382;43.160;24.148;2023-07-31T00:54:25;12.82;;;9.48;;
48596;SDS011;34382;43.160;24.148;2023-07-31T00:55:58;13.35;;;10.07;;
48596;SDS011;34382;43.160;24.148;2023-07-31T00:57:30;12.15;;;9.23;;
48596;SDS011;34382;43.160;24.148;2023-07-31T00:59:04;13.32;;;9.45;;
48596;SDS011;34382;43.160;24.148;2023-07-31T01:00:36;15.98;;;9.25;;
48596;SDS011;34382;43.160;24.148;2023-07-31T01:02:08;12.50;;;9.52;;
48596;SDS011;34382;43.160;24.148;2023-07-31T01:03:41;12.32;;;9.35;;
48596;SDS011;34382;43.160;24.148;2023-07-31T01:05:13;13.33;;;9.97;;
48596;SDS011;34382;43.160;24.148;2023-07-31T01:06:52;14.10;;;9.07;;
48596;SDS011;34382;43.160;24.148;2023-07-31T01:08:33;16.40;;;9.73;;
48596;SDS011;34382;43.160;24.148;2023-07-31T01:10:22;12.23;;;8.68;;
48596;SDS011;34382;43.160;24.148;2023-07-31T01:12:02;13.70;;;8.95;;
48596;SDS011;34382;43.160;24.148;2023-07-31T01:13:38;12.30;;;9.18;;
48596;SDS011;34382;43.160;24.148;2023-07-31T01:15:11;10.70;;;8.35;;
48596;SDS011;34382;43.160;24.148;2023-07-31T01:16:43;12.93;;;8.97;;
48596;SDS011;34382;43.160;24.148;2023-07-31T01:18:15;13.63;;;8.87;;
48596;SDS011;34382;43.160;24.148;2023-07-31T01:19:47;13.40;;;8.77;;
48596;SDS011;34382;43.160;24.148;2023-07-31T01:26:53;13.25;;;9.60;;
48596;SDS011;34382;43.160;24.148;2023-07-31T01:30:16;14.85;;;9.23;;
48596;SDS011;34382;43.160;24.148;2023-07-31T01:31:54;12.07;;;8.45;;
48596;SDS011;34382;43.160;24.148;2023-07-31T01:33:27;11.70;;;8.50;;
48596;SDS011;34382;43.160;24.148;2023-07-31T01:35:00;12.65;;;8.38;;
48596;SDS011;34382;43.160;24.148;2023-07-31T01:36:32;16.00;;;9.35;;
48596;SDS011;34382;43.160;24.148;2023-07-31T01:38:05;14.43;;;9.55;;
48596;SDS011;34382;43.160;24.148;2023-07-31T01:39:37;15.13;;;9.25;;
48596;SDS011;34382;43.160;24.148;2023-07-31T01:41:09;14.13;;;9.05;;
48596;SDS011;34382;43.160;24.148;2023-07-31T01:42:42;15.93;;;9.23;;
48596;SDS011;34382;43.160;24.148;2023-07-31T01:44:14;11.43;;;8.07;;
48596;SDS011;34382;43.160;24.148;2023-07-31T01:45:46;16.90;;;8.88;;
48596;SDS011;34382;43.160;24.148;2023-07-31T01:47:18;12.15;;;8.63;;
48596;SDS011;34382;43.160;24.148;2023-07-31T01:48:50;25.95;;;11.32;;
48596;SDS011;34382;43.160;24.148;2023-07-31T01:50:23;12.80;;;8.18;;
48596;SDS011;34382;43.160;24.148;2023-07-31T01:51:55;12.27;;;8.60;;
48596;SDS011;34382;43.160;24.148;2023-07-31T01:53:27;11.07;;;8.15;;
48596;SDS011;34382;43.160;24.148;2023-07-31T01:55:02;13.23;;;8.68;;
48596;SDS011;34382;43.160;24.148;2023-07-31T01:56:35;11.73;;;8.48;;
48596;SDS011;34382;43.160;24.148;2023-07-31T01:58:08;12.02;;;8.13;;
48596;SDS011;34382;43.160;24.148;2023-07-31T01:59:41;11.77;;;8.40;;
48596;SDS011;34382;43.160;24.148;2023-07-31T02:01:13;12.65;;;8.25;;
48596;SDS011;34382;43.160;24.148;2023-07-31T02:02:45;12.77;;;8.45;;
48596;SDS011;34382;43.160;24.148;2023-07-31T02:04:17;13.88;;;8.02;;
48596;SDS011;34382;43.160;24.148;2023-07-31T02:05:49;13.95;;;8.35;;
48596;SDS011;34382;43.160;24.148;2023-07-31T02:07:22;13.02;;;8.40;;
48596;SDS011;34382;43.160;24.148;2023-07-31T02:08:54;12.48;;;8.65;;
48596;SDS011;34382;43.160;24.148;2023-07-31T02:10:26;11.60;;;8.05;;
48596;SDS011;34382;43.160;24.148;2023-07-31T02:11:58;13.13;;;8.73;;
48596;SDS011;34382;43.160;24.148;2023-07-31T02:13:30;13.73;;;8.73;;
48596;SDS011;34382;43.160;24.148;2023-07-31T02:15:02;11.75;;;8.23;;
48596;SDS011;34382;43.160;24.148;2023-07-31T02:16:35;14.57;;;8.55;;
48596;SDS011;34382;43.160;24.148;2023-07-31T02:18:08;13.25;;;8.65;;
48596;SDS011;34382;43.160;24.148;2023-07-31T02:19:40;11.77;;;8.80;;
48596;SDS011;34382;43.160;24.148;2023-07-31T02:21:12;11.95;;;8.10;;
48596;SDS011;34382;43.160;24.148;2023-07-31T02:22:44;12.70;;;8.93;;
48596;SDS011;34382;43.160;24.148;2023-07-31T02:24:17;14.05;;;8.50;;
48596;SDS011;34382;43.160;24.148;2023-07-31T02:25:49;18.85;;;9.27;;
48596;SDS011;34382;43.160;24.148;2023-07-31T02:27:21;13.57;;;9.10;;
48596;SDS011;34382;43.160;24.148;2023-07-31T02:28:55;11.60;;;8.73;;
48596;SDS011;34382;43.160;24.148;2023-07-31T02:30:28;12.00;;;8.80;;
48596;SDS011;34382;43.160;24.148;2023-07-31T02:32:00;12.93;;;8.90;;
48596;SDS011;34382;43.160;24.148;2023-07-31T02:33:32;13.27;;;9.07;;
48596;SDS011;34382;43.160;24.148;2023-07-31T02:35:04;12.23;;;8.68;;
48596;SDS011;34382;43.160;24.148;2023-07-31T02:36:37;11.68;;;8.57;;
48596;SDS011;34382;43.160;24.148;2023-07-31T02:38:09;12.43;;;9.07;;
48596;SDS011;34382;43.160;24.148;2023-07-31T02:39:42;11.70;;;8.77;;
48596;SDS011;34382;43.160;24.148;2023-07-31T02:41:14;14.23;;;8.52;;
48596;SDS011;34382;43.160;24.148;2023-07-31T02:42:47;13.98;;;9.35;;
48596;SDS011;34382;43.160;24.148;2023-07-31T02:44:19;14.55;;;8.60;;
48596;SDS011;34382;43.160;24.148;2023-07-31T02:45:53;13.35;;;8.80;;
48596;SDS011;34382;43.160;24.148;2023-07-31T02:47:26;15.95;;;8.15;;
48596;SDS011;34382;43.160;24.148;2023-07-31T02:48:58;13.00;;;8.83;;
48596;SDS011;34382;43.160;24.148;2023-07-31T02:50:31;11.77;;;7.95;;
48596;SDS011;34382;43.160;24.148;2023-07-31T02:52:03;12.48;;;8.52;;
48596;SDS011;34382;43.160;24.148;2023-07-31T02:53:36;13.40;;;8.23;;
48596;SDS011;34382;43.160;24.148;2023-07-31T02:55:08;10.98;;;7.90;;
48596;SDS011;34382;43.160;24.148;2023-07-31T02:56:40;13.80;;;9.02;;
48596;SDS011;34382;43.160;24.148;2023-07-31T02:58:13;11.32;;;8.65;;
48596;SDS011;34382;43.160;24.148;2023-07-31T02:59:45;13.05;;;9.52;;
48596;SDS011;34382;43.160;24.148;2023-07-31T03:01:17;12.77;;;9.10;;
48596;SDS011;34382;43.160;24.148;2023-07-31T03:02:49;11.27;;;8.27;;
48596;SDS011;34382;43.160;24.148;2023-07-31T03:04:22;13.33;;;8.60;;
48596;SDS011;34382;43.160;24.148;2023-07-31T03:05:54;12.02;;;8.02;;
48596;SDS011;34382;43.160;24.148;2023-07-31T03:07:26;12.82;;;8.82;;
48596;SDS011;34382;43.160;24.148;2023-07-31T03:08:58;12.40;;;8.73;;
48596;SDS011;34382;43.160;24.148;2023-07-31T03:10:31;12.27;;;8.52;;
48596;SDS011;34382;43.160;24.148;2023-07-31T03:12:03;12.60;;;8.65;;
48596;SDS011;34382;43.160;24.148;2023-07-31T03:13:35;14.70;;;9.32;;
48596;SDS011;34382;43.160;24.148;2023-07-31T03:15:08;12.68;;;8.77;;
48596;SDS011;34382;43.160;24.148;2023-07-31T03:16:40;12.57;;;9.07;;
48596;SDS011;34382;43.160;24.148;2023-07-31T03:18:12;14.07;;;9.07;;
48596;SDS011;34382;43.160;24.148;2023-07-31T03:19:45;15.77;;;8.60;;
48596;SDS011;34382;43.160;24.148;2023-07-31T03:21:17;11.52;;;8.23;;
48596;SDS011;34382;43.160;24.148;2023-07-31T03:22:49;14.52;;;8.30;;
48596;SDS011;34382;43.160;24.148;2023-07-31T03:24:32;10.93;;;7.88;;
48596;SDS011;34382;43.160;24.148;2023-07-31T03:26:06;11.63;;;8.07;;
48596;SDS011;34382;43.160;24.148;2023-07-31T03:27:39;11.35;;;8.30;;
48596;SDS011;34382;43.160;24.148;2023-07-31T03:29:11;14.35;;;8.95;;
48596;SDS011;34382;43.160;24.148;2023-07-31T03:30:43;12.18;;;8.50;;
48596;SDS011;34382;43.160;24.148;2023-07-31T03:33:48;13.55;;;7.82;;
48596;SDS011;34382;43.160;24.148;2023-07-31T03:35:21;12.57;;;8.63;;
48596;SDS011;34382;43.160;24.148;2023-07-31T03:36:53;12.40;;;8.75;;
48596;SDS011;34382;43.160;24.148;2023-07-31T03:38:25;11.82;;;8.13;;
48596;SDS011;34382;43.160;24.148;2023-07-31T03:39:58;14.23;;;8.93;;
48596;SDS011;34382;43.160;24.148;2023-07-31T03:41:30;12.23;;;8.88;;
48596;SDS011;34382;43.160;24.148;2023-07-31T03:43:02;16.25;;;9.10;;
48596;SDS011;34382;43.160;24.148;2023-07-31T03:44:34;13.17;;;9.00;;
48596;SDS011;34382;43.160;24.148;2023-07-31T03:46:07;12.48;;;8.57;;
48596;SDS011;34382;43.160;24.148;2023-07-31T03:47:39;16.17;;;8.70;;
48596;SDS011;34382;43.160;24.148;2023-07-31T03:49:11;11.97;;;8.37;;
48596;SDS011;34382;43.160;24.148;2023-07-31T03:50:43;12.43;;;8.80;;
48596;SDS011;34382;43.160;24.148;2023-07-31T03:52:15;14.27;;;8.90;;
48596;SDS011;34382;43.160;24.148;2023-07-31T03:53:48;12.68;;;8.13;;
48596;SDS011;34382;43.160;24.148;2023-07-31T03:55:20;11.63;;;8.27;;
48596;SDS011;34382;43.160;24.148;2023-07-31T03:56:53;13.85;;;8.35;;
48596;SDS011;34382;43.160;24.148;2023-07-31T03:58:25;14.80;;;8.95;;
48596;SDS011;34382;43.160;24.148;2023-07-31T03:59:58;14.97;;;8.93;;
48596;SDS011;34382;43.160;24.148;2023-07-31T04:01:30;11.05;;;8.27;;
48596;SDS011;34382;43.160;24.148;2023-07-31T04:03:03;13.18;;;9.13;;
48596;SDS011;34382;43.160;24.148;2023-07-31T04:04:35;11.55;;;8.52;;
48596;SDS011;34382;43.160;24.148;2023-07-31T04:06:07;16.25;;;9.18;;
48596;SDS011;34382;43.160;24.148;2023-07-31T04:07:40;15.90;;;9.15;;
48596;SDS011;34382;43.160;24.148;2023-07-31T04:09:12;13.13;;;8.93;;
48596;SDS011;34382;43.160;24.148;2023-07-31T04:10:44;11.88;;;8.85;;
48596;SDS011;34382;43.160;24.148;2023-07-31T04:12:17;12.53;;;9.20;;
48596;SDS011;34382;43.160;24.148;2023-07-31T04:13:49;14.30;;;8.93;;
48596;SDS011;34382;43.160;24.148;2023-07-31T04:15:21;13.50;;;8.63;;
48596;SDS011;34382;43.160;24.148;2023-07-31T04:16:53;12.20;;;8.77;;
48596;SDS011;34382;43.160;24.148;2023-07-31T04:18:26;12.90;;;8.80;;
48596;SDS011;34382;43.160;24.148;2023-07-31T04:19:58;11.93;;;8.60;;
48596;SDS011;34382;43.160;24.148;2023-07-31T04:21:30;12.23;;;9.07;;
48596;SDS011;34382;43.160;24.148;2023-07-31T04:23:02;13.10;;;8.70;;
48596;SDS011;34382;43.160;24.148;2023-07-31T04:24:35;15.30;;;9.13;;
48596;SDS011;34382;43.160;24.148;2023-07-31T04:26:07;16.17;;;10.18;;
48596;SDS011;34382;43.160;24.148;2023-07-31T04:27:39;15.20;;;8.93;;
48596;SDS011;34382;43.160;24.148;2023-07-31T04:29:11;12.88;;;8.77;;
48596;SDS011;34382;43.160;24.148;2023-07-31T04:30:44;11.87;;;8.17;;
48596;SDS011;34382;43.160;24.148;2023-07-31T04:32:19;13.70;;;9.20;;
48596;SDS011;34382;43.160;24.148;2023-07-31T04:33:52;13.82;;;8.93;;
48596;SDS011;34382;43.160;24.148;2023-07-31T04:35:25;14.65;;;9.18;;
48596;SDS011;34382;43.160;24.148;2023-07-31T04:36:59;14.15;;;9.75;;
48596;SDS011;34382;43.160;24.148;2023-07-31T04:38:31;13.07;;;9.35;;
48596;SDS011;34382;43.160;24.148;2023-07-31T04:40:03;14.38;;;9.68;;
48596;SDS011;34382;43.160;24.148;2023-07-31T04:41:35;14.32;;;9.52;;
48596;SDS011;34382;43.160;24.148;2023-07-31T04:43:08;13.25;;;9.18;;
48596;SDS011;34382;43.160;24.148;2023-07-31T04:44:40;14.57;;;10.13;;
48596;SDS011;34382;43.160;24.148;2023-07-31T04:46:12;14.93;;;10.05;;
48596;SDS011;34382;43.160;24.148;2023-07-31T04:47:44;12.37;;;9.47;;
48596;SDS011;34382;43.160;24.148;2023-07-31T04:49:16;14.68;;;10.00;;
48596;SDS011;34382;43.160;24.148;2023-07-31T04:50:49;14.45;;;9.70;;
48596;SDS011;34382;43.160;24.148;2023-07-31T04:52:21;15.17;;;8.87;;
48596;SDS011;34382;43.160;24.148;2023-07-31T04:53:54;13.30;;;8.65;;
48596;SDS011;34382;43.160;24.148;2023-07-31T04:55:26;18.58;;;10.25;;
48596;SDS011;34382;43.160;24.148;2023-07-31T04:56:58;14.87;;;10.00;;
48596;SDS011;34382;43.160;24.148;2023-07-31T04:58:31;16.17;;;9.35;;
48596;SDS011;34382;43.160;24.148;2023-07-31T05:00:03;13.40;;;9.35;;
48596;SDS011;34382;43.160;24.148;2023-07-31T05:03:14;14.00;;;8.93;;
48596;SDS011;34382;43.160;24.148;2023-07-31T05:04:47;13.75;;;9.88;;
48596;SDS011;34382;43.160;24.148;2023-07-31T05:06:19;16.27;;;9.23;;
48596;SDS011;34382;43.160;24.148;2023-07-31T05:07:52;15.45;;;9.40;;
48596;SDS011;34382;43.160;24.148;2023-07-31T05:09:24;13.13;;;8.80;;
48596;SDS011;34382;43.160;24.148;2023-07-31T05:10:56;12.77;;;9.00;;
48596;SDS011;34382;43.160;24.148;2023-07-31T05:12:28;14.05;;;9.43;;
48596;SDS011;34382;43.160;24.148;2023-07-31T05:14:01;12.93;;;8.63;;
48596;SDS011;34382;43.160;24.148;2023-07-31T05:15:33;13.97;;;9.10;;
48596;SDS011;34382;43.160;24.148;2023-07-31T05:17:05;12.50;;;8.98;;
48596;SDS011;34382;43.160;24.148;2023-07-31T05:18:37;13.93;;;8.07;;
48596;SDS011;34382;43.160;24.148;2023-07-31T05:20:10;14.30;;;9.13;;
48596;SDS011;34382;43.160;24.148;2023-07-31T05:21:42;12.65;;;8.02;;
48596;SDS011;34382;43.160;24.148;2023-07-31T05:23:15;15.47;;;8.20;;
48596;SDS011;34382;43.160;24.148;2023-07-31T05:24:47;12.82;;;8.40;;
48596;SDS011;34382;43.160;24.148;2023-07-31T05:26:19;13.73;;;8.05;;
48596;SDS011;34382;43.160;24.148;2023-07-31T05:27:51;15.80;;;7.60;;
48596;SDS011;34382;43.160;24.148;2023-07-31T05:29:24;15.13;;;7.88;;
48596;SDS011;34382;43.160;24.148;2023-07-31T05:31:02;12.85;;;8.02;;
48596;SDS011;34382;43.160;24.148;2023-07-31T05:32:35;12.30;;;7.68;;
48596;SDS011;34382;43.160;24.148;2023-07-31T05:34:07;12.93;;;8.68;;
48596;SDS011;34382;43.160;24.148;2023-07-31T05:35:40;12.77;;;7.38;;
48596;SDS011;34382;43.160;24.148;2023-07-31T05:37:12;12.37;;;7.50;;
48596;SDS011;34382;43.160;24.148;2023-07-31T05:38:44;12.38;;;7.07;;
48596;SDS011;34382;43.160;24.148;2023-07-31T05:40:16;12.30;;;6.93;;
48596;SDS011;34382;43.160;24.148;2023-07-31T05:41:49;13.40;;;6.90;;
48596;SDS011;34382;43.160;24.148;2023-07-31T05:43:21;9.98;;;6.15;;
48596;SDS011;34382;43.160;24.148;2023-07-31T05:44:53;10.93;;;6.40;;
48596;SDS011;34382;43.160;24.148;2023-07-31T05:46:26;10.63;;;6.25;;
48596;SDS011;34382;43.160;24.148;2023-07-31T05:47:58;10.50;;;6.13;;
48596;SDS011;34382;43.160;24.148;2023-07-31T05:49:30;14.10;;;6.93;;
48596;SDS011;34382;43.160;24.148;2023-07-31T05:51:03;11.93;;;6.20;;
48596;SDS011;34382;43.160;24.148;2023-07-31T05:52:35;9.65;;;5.72;;
48596;SDS011;34382;43.160;24.148;2023-07-31T05:54:07;11.13;;;6.53;;
48596;SDS011;34382;43.160;24.148;2023-07-31T05:55:40;13.23;;;5.50;;
48596;SDS011;34382;43.160;24.148;2023-07-31T05:57:12;9.27;;;5.43;;
48596;SDS011;34382;43.160;24.148;2023-07-31T05:58:44;9.60;;;5.63;;
48596;SDS011;34382;43.160;24.148;2023-07-31T06:00:16;10.03;;;5.83;;
48596;SDS011;34382;43.160;24.148;2023-07-31T06:01:49;10.68;;;5.45;;
48596;SDS011;34382;43.160;24.148;2023-07-31T06:03:21;9.18;;;4.80;;
48596;SDS011;34382;43.160;24.148;2023-07-31T06:04:53;9.63;;;5.45;;
48596;SDS011;34382;43.160;24.148;2023-07-31T06:06:26;11.73;;;5.37;;
48596;SDS011;34382;43.160;24.148;2023-07-31T06:07:58;9.18;;;5.15;;
48596;SDS011;34382;43.160;24.148;2023-07-31T06:09:30;9.75;;;5.28;;
48596;SDS011;34382;43.160;24.148;2023-07-31T06:11:02;10.57;;;4.97;;
48596;SDS011;34382;43.160;24.148;2023-07-31T06:12:35;8.70;;;4.93;;
48596;SDS011;34382;43.160;24.148;2023-07-31T06:14:07;8.97;;;4.90;;
48596;SDS011;34382;43.160;24.148;2023-07-31T06:15:39;11.77;;;5.17;;
48596;SDS011;34382;43.160;24.148;2023-07-31T06:17:12;9.40;;;5.00;;
48596;SDS011;34382;43.160;24.148;2023-07-31T06:18:44;8.55;;;4.25;;
48596;SDS011;34382;43.160;24.148;2023-07-31T06:20:16;7.93;;;4.07;;
48596;SDS011;34382;43.160;24.148;2023-07-31T06:21:48;8.38;;;4.18;;
48596;SDS011;34382;43.160;24.148;2023-07-31T06:23:21;8.60;;;3.90;;
48596;SDS011;34382;43.160;24.148;2023-07-31T06:24:53;8.60;;;4.20;;
48596;SDS011;34382;43.160;24.148;2023-07-31T06:26:25;9.57;;;4.30;;
48596;SDS011;34382;43.160;24.148;2023-07-31T06:27:57;8.80;;;4.40;;
48596;SDS011;34382;43.160;24.148;2023-07-31T06:29:30;9.25;;;4.50;;
48596;SDS011;34382;43.160;24.148;2023-07-31T06:31:02;11.27;;;4.20;;
48596;SDS011;34382;43.160;24.148;2023-07-31T06:32:34;8.48;;;4.30;;
48596;SDS011;34382;43.160;24.148;2023-07-31T06:34:08;8.20;;;4.30;;
48596;SDS011;34382;43.160;24.148;2023-07-31T06:35:40;15.68;;;5.65;;
48596;SDS011;34382;43.160;24.148;2023-07-31T06:37:12;8.00;;;3.80;;
48596;SDS011;34382;43.160;24.148;2023-07-31T06:38:45;8.23;;;4.38;;
48596;SDS011;34382;43.160;24.148;2023-07-31T06:40:17;7.95;;;4.00;;
48596;SDS011;34382;43.160;24.148;2023-07-31T06:41:49;8.35;;;4.28;;
48596;SDS011;34382;43.160;24.148;2023-07-31T06:43:22;7.95;;;3.92;;
48596;SDS011;34382;43.160;24.148;2023-07-31T06:44:56;8.85;;;4.43;;
48596;SDS011;34382;43.160;24.148;2023-07-31T06:46:28;11.65;;;4.20;;
48596;SDS011;34382;43.160;24.148;2023-07-31T06:48:03;8.33;;;4.67;;
48596;SDS011;34382;43.160;24.148;2023-07-31T06:49:36;8.63;;;4.50;;
48596;SDS011;34382;43.160;24.148;2023-07-31T06:51:08;8.60;;;4.40;;
48596;SDS011;34382;43.160;24.148;2023-07-31T06:52:41;7.83;;;3.73;;
48596;SDS011;34382;43.160;24.148;2023-07-31T06:54:13;8.15;;;3.80;;
48596;SDS011;34382;43.160;24.148;2023-07-31T06:55:45;7.32;;;3.28;;
48596;SDS011;34382;43.160;24.148;2023-07-31T06:57:19;8.23;;;3.78;;
48596;SDS011;34382;43.160;24.148;2023-07-31T06:58:52;8.38;;;4.00;;
48596;SDS011;34382;43.160;24.148;2023-07-31T07:00:24;7.03;;;3.40;;
48596;SDS011;34382;43.160;24.148;2023-07-31T07:01:57;8.25;;;3.58;;
48596;SDS011;34382;43.160;24.148;2023-07-31T07:03:29;7.10;;;3.38;;
48596;SDS011;34382;43.160;24.148;2023-07-31T07:05:01;7.27;;;3.17;;
48596;SDS011;34382;43.160;24.148;2023-07-31T07:06:34;10.88;;;3.63;;
48596;SDS011;34382;43.160;24.148;2023-07-31T07:08:06;7.23;;;3.50;;
48596;SDS011;34382;43.160;24.148;2023-07-31T07:09:38;6.40;;;3.20;;
48596;SDS011;34382;43.160;24.148;2023-07-31T07:11:11;6.67;;;2.67;;
48596;SDS011;34382;43.160;24.148;2023-07-31T07:12:43;7.97;;;3.45;;
48596;SDS011;34382;43.160;24.148;2023-07-31T07:14:15;7.60;;;3.35;;
48596;SDS011;34382;43.160;24.148;2023-07-31T07:15:48;7.67;;;3.20;;
48596;SDS011;34382;43.160;24.148;2023-07-31T07:17:21;6.05;;;2.70;;
48596;SDS011;34382;43.160;24.148;2023-07-31T07:18:53;6.38;;;2.80;;
48596;SDS011;34382;43.160;24.148;2023-07-31T07:20:35;8.13;;;3.25;;
48596;SDS011;34382;43.160;24.148;2023-07-31T07:22:07;7.70;;;2.97;;
48596;SDS011;34382;43.160;24.148;2023-07-31T07:23:39;7.30;;;3.13;;
48596;SDS011;34382;43.160;24.148;2023-07-31T07:25:12;6.18;;;2.80;;
48596;SDS011;34382;43.160;24.148;2023-07-31T07:26:44;7.57;;;3.13;;
48596;SDS011;34382;43.160;24.148;2023-07-31T07:28:16;5.75;;;2.60;;
48596;SDS011;34382;43.160;24.148;2023-07-31T07:29:50;5.55;;;2.45;;
48596;SDS011;34382;43.160;24.148;2023-07-31T07:31:24;8.45;;;2.75;;
48596;SDS011;34382;43.160;24.148;2023-07-31T07:32:57;6.50;;;2.50;;
48596;SDS011;34382;43.160;24.148;2023-07-31T07:34:29;4.70;;;2.28;;
48596;SDS011;34382;43.160;24.148;2023-07-31T07:36:01;6.00;;;2.65;;
48596;SDS011;34382;43.160;24.148;2023-07-31T07:37:34;5.50;;;2.30;;
48596;SDS011;34382;43.160;24.148;2023-07-31T07:39:06;6.32;;;2.53;;
48596;SDS011;34382;43.160;24.148;2023-07-31T07:40:39;5.57;;;2.50;;
48596;SDS011;34382;43.160;24.148;2023-07-31T07:42:11;6.00;;;2.50;;
48596;SDS011;34382;43.160;24.148;2023-07-31T07:43:44;5.10;;;2.47;;
48596;SDS011;34382;43.160;24.148;2023-07-31T07:45:16;6.05;;;2.80;;
48596;SDS011;34382;43.160;24.148;2023-07-31T07:46:48;6.83;;;2.60;;
48596;SDS011;34382;43.160;24.148;2023-07-31T07:48:21;6.20;;;3.03;;
48596;SDS011;34382;43.160;24.148;2023-07-31T07:49:56;6.43;;;2.70;;
48596;SDS011;34382;43.160;24.148;2023-07-31T07:51:29;7.63;;;2.70;;
48596;SDS011;34382;43.160;24.148;2023-07-31T07:53:03;6.85;;;2.65;;
48596;SDS011;34382;43.160;24.148;2023-07-31T07:54:35;5.25;;;2.45;;
48596;SDS011;34382;43.160;24.148;2023-07-31T07:56:07;5.85;;;2.55;;
48596;SDS011;34382;43.160;24.148;2023-07-31T07:57:39;10.40;;;2.80;;
48596;SDS011;34382;43.160;24.148;2023-07-31T07:59:12;6.93;;;2.75;;
48596;SDS011;34382;43.160;24.148;2023-07-31T08:00:50;5.47;;;2.40;;
48596;SDS011;34382;43.160;24.148;2023-07-31T08:02:23;6.80;;;2.70;;
48596;SDS011;34382;43.160;24.148;2023-07-31T08:03:55;6.47;;;2.70;;
48596;SDS011;34382;43.160;24.148;2023-07-31T08:05:28;5.17;;;2.20;;
48596;SDS011;34382;43.160;24.148;2023-07-31T08:07:03;7.70;;;2.83;;
48596;SDS011;34382;43.160;24.148;2023-07-31T08:08:36;6.32;;;2.70;;
48596;SDS011;34382;43.160;24.148;2023-07-31T08:10:08;5.28;;;2.38;;
48596;SDS011;34382;43.160;24.148;2023-07-31T08:11:41;7.47;;;2.70;;
48596;SDS011;34382;43.160;24.148;2023-07-31T08:13:13;6.07;;;2.70;;
48596;SDS011;34382;43.160;24.148;2023-07-31T08:14:45;6.47;;;2.70;;
48596;SDS011;34382;43.160;24.148;2023-07-31T08:16:17;6.47;;;3.00;;
48596;SDS011;34382;43.160;24.148;2023-07-31T08:17:50;7.70;;;3.67;;
48596;SDS011;34382;43.160;24.148;2023-07-31T08:19:22;13.98;;;10.30;;
48596;SDS011;34382;43.160;24.148;2023-07-31T08:20:54;9.98;;;4.63;;
48596;SDS011;34382;43.160;24.148;2023-07-31T08:22:26;8.10;;;2.92;;
48596;SDS011;34382;43.160;24.148;2023-07-31T08:23:59;6.13;;;2.80;;
48596;SDS011;34382;43.160;24.148;2023-07-31T08:25:34;6.05;;;2.67;;
48596;SDS011;34382;43.160;24.148;2023-07-31T08:27:09;6.40;;;2.50;;
48596;SDS011;34382;43.160;24.148;2023-07-31T08:28:41;6.05;;;2.28;;
48596;SDS011;34382;43.160;24.148;2023-07-31T08:30:13;6.30;;;2.57;;
48596;SDS011;34382;43.160;24.148;2023-07-31T08:31:45;6.63;;;2.50;;
48596;SDS011;34382;43.160;24.148;2023-07-31T08:33:18;6.03;;;2.60;;
48596;SDS011;34382;43.160;24.148;2023-07-31T08:34:50;5.65;;;2.60;;
48596;SDS011;34382;43.160;24.148;2023-07-31T08:36:23;5.70;;;2.60;;
48596;SDS011;34382;43.160;24.148;2023-07-31T08:37:57;5.93;;;2.42;;
48596;SDS011;34382;43.160;24.148;2023-07-31T08:39:29;5.07;;;2.30;;
48596;SDS011;34382;43.160;24.148;2023-07-31T08:41:05;7.13;;;2.80;;
48596;SDS011;34382;43.160;24.148;2023-07-31T08:42:46;6.72;;;2.60;;
48596;SDS011;34382;43.160;24.148;2023-07-31T08:44:19;6.70;;;3.03;;
48596;SDS011;34382;43.160;24.148;2023-07-31T08:45:52;5.82;;;2.60;;
48596;SDS011;34382;43.160;24.148;2023-07-31T08:47:25;6.35;;;2.78;;
48596;SDS011;34382;43.160;24.148;2023-07-31T08:48:58;5.88;;;2.90;;
48596;SDS011;34382;43.160;24.148;2023-07-31T08:50:31;7.57;;;2.92;;
48596;SDS011;34382;43.160;24.148;2023-07-31T08:52:03;6.85;;;2.58;;
48596;SDS011;34382;43.160;24.148;2023-07-31T08:53:36;7.30;;;2.95;;
48596;SDS011;34382;43.160;24.148;2023-07-31T08:55:08;6.35;;;3.05;;
48596;SDS011;34382;43.160;24.148;2023-07-31T08:56:41;7.25;;;3.50;;
48596;SDS011;34382;43.160;24.148;2023-07-31T08:58:14;6.15;;;2.88;;
48596;SDS011;34382;43.160;24.148;2023-07-31T08:59:47;7.75;;;3.30;;
48596;SDS011;34382;43.160;24.148;2023-07-31T09:01:19;7.07;;;2.70;;
48596;SDS011;34382;43.160;24.148;2023-07-31T09:02:54;7.30;;;2.90;;
48596;SDS011;34382;43.160;24.148;2023-07-31T09:04:30;7.07;;;3.20;;
48596;SDS011;34382;43.160;24.148;2023-07-31T09:06:02;6.90;;;3.20;;
48596;SDS011;34382;43.160;24.148;2023-07-31T09:07:35;7.95;;;3.33;;
48596;SDS011;34382;43.160;24.148;2023-07-31T09:09:08;8.67;;;4.07;;
48596;SDS011;34382;43.160;24.148;2023-07-31T09:12:13;7.25;;;3.47;;
48596;SDS011;34382;43.160;24.148;2023-07-31T09:13:46;8.53;;;3.27;;
48596;SDS011;34382;43.160;24.148;2023-07-31T09:15:18;7.00;;;3.00;;